sensor_id;sensor_type;location;lat;lon;timestamp;P1;durP1;ratioP1;P2;durP2;ratioP2
3627;SDS011;1830;49.000;12.074;2023-07-13T00:00:02;6.60;;;5.60;;
3627;SDS011;1830;49.000;12.074;2023-07-13T00:02:34;8.70;;;6.07;;
3627;SDS011;1830;49.000;12.074;2023-07-13T00:05:01;5.60;;;5.13;;
3627;SDS011;1830;49.000;12.074;2023-07-13T00:07:28;8.97;;;5.67;;
3627;SDS011;1830;49.000;12.074;2023-07-13T00:09:56;6.30;;;5.60;;
3627;SDS011;1830;49.000;12.074;2023-07-13T00:12:25;9.33;;;6.00;;
3627;SDS011;1830;49.000;12.074;2023-07-13T00:14:53;8.77;;;5.97;;
3627;SDS011;1830;49.000;12.074;2023-07-13T00:17:22;9.50;;;5.17;;
3627;SDS011;1830;49.000;12.074;2023-07-13T00:19:50;8.20;;;5.83;;
3627;SDS011;1830;49.000;12.074;2023-07-13T00:22:17;8.83;;;6.17;;
3627;SDS011;1830;49.000;12.074;2023-07-13T00:24:44;6.37;;;5.70;;
3627;SDS011;1830;49.000;12.074;2023-07-13T00:27:11;6.37;;;5.67;;
3627;SDS011;1830;49.000;12.074;2023-07-13T00:29:39;10.30;;;5.70;;
3627;SDS011;1830;49.000;12.074;2023-07-13T00:32:06;6.00;;;5.50;;
3627;SDS011;1830;49.000;12.074;2023-07-13T00:34:36;5.57;;;5.07;;
3627;SDS011;1830;49.000;12.074;2023-07-13T00:37:04;5.90;;;5.03;;
3627;SDS011;1830;49.000;12.074;2023-07-13T00:39:32;6.33;;;5.70;;
3627;SDS011;1830;49.000;12.074;2023-07-13T00:42:00;5.93;;;5.40;;
3627;SDS011;1830;49.000;12.074;2023-07-13T00:44:27;10.93;;;5.67;;
3627;SDS011;1830;49.000;12.074;2023-07-13T00:46:54;5.23;;;4.70;;
3627;SDS011;1830;49.000;12.074;2023-07-13T00:49:23;14.00;;;4.90;;
3627;SDS011;1830;49.000;12.074;2023-07-13T00:51:54;9.67;;;5.80;;
3627;SDS011;1830;49.000;12.074;2023-07-13T00:54:24;5.80;;;4.50;;
3627;SDS011;1830;49.000;12.074;2023-07-13T00:56:55;7.40;;;6.03;;
3627;SDS011;1830;49.000;12.074;2023-07-13T00:59:25;7.53;;;5.00;;
3627;SDS011;1830;49.000;12.074;2023-07-13T01:01:52;11.33;;;6.10;;
3627;SDS011;1830;49.000;12.074;2023-07-13T01:04:19;7.33;;;5.37;;
3627;SDS011;1830;49.000;12.074;2023-07-13T01:06:46;11.30;;;5.30;;
3627;SDS011;1830;49.000;12.074;2023-07-13T01:09:13;6.67;;;5.73;;
3627;SDS011;1830;49.000;12.074;2023-07-13T01:11:44;14.53;;;5.73;;
3627;SDS011;1830;49.000;12.074;2023-07-13T01:14:11;10.37;;;6.80;;
3627;SDS011;1830;49.000;12.074;2023-07-13T01:16:38;9.03;;;6.63;;
3627;SDS011;1830;49.000;12.074;2023-07-13T01:19:07;7.87;;;7.07;;
3627;SDS011;1830;49.000;12.074;2023-07-13T01:21:49;8.43;;;6.67;;
3627;SDS011;1830;49.000;12.074;2023-07-13T01:24:16;7.50;;;6.57;;
3627;SDS011;1830;49.000;12.074;2023-07-13T01:26:43;9.07;;;7.10;;
3627;SDS011;1830;49.000;12.074;2023-07-13T01:29:10;9.53;;;7.17;;
3627;SDS011;1830;49.000;12.074;2023-07-13T01:31:36;10.30;;;7.17;;
3627;SDS011;1830;49.000;12.074;2023-07-13T01:34:03;8.90;;;7.67;;
3627;SDS011;1830;49.000;12.074;2023-07-13T01:36:30;11.27;;;7.80;;
3627;SDS011;1830;49.000;12.074;2023-07-13T01:38:58;13.00;;;8.00;;
3627;SDS011;1830;49.000;12.074;2023-07-13T01:41:25;13.23;;;8.73;;
3627;SDS011;1830;49.000;12.074;2023-07-13T01:43:51;10.00;;;9.00;;
3627;SDS011;1830;49.000;12.074;2023-07-13T01:46:18;10.10;;;8.13;;
3627;SDS011;1830;49.000;12.074;2023-07-13T01:48:45;13.40;;;8.80;;
3627;SDS011;1830;49.000;12.074;2023-07-13T01:51:12;11.60;;;8.70;;
3627;SDS011;1830;49.000;12.074;2023-07-13T01:53:39;15.77;;;8.23;;
3627;SDS011;1830;49.000;12.074;2023-07-13T01:56:07;13.47;;;8.70;;
3627;SDS011;1830;49.000;12.074;2023-07-13T01:58:33;11.47;;;8.80;;
3627;SDS011;1830;49.000;12.074;2023-07-13T02:01:00;13.37;;;8.27;;
3627;SDS011;1830;49.000;12.074;2023-07-13T02:03:27;17.20;;;8.73;;
3627;SDS011;1830;49.000;12.074;2023-07-13T02:05:54;9.40;;;7.60;;
3627;SDS011;1830;49.000;12.074;2023-07-13T02:08:20;13.13;;;8.37;;
3627;SDS011;1830;49.000;12.074;2023-07-13T02:10:47;12.20;;;8.00;;
3627;SDS011;1830;49.000;12.074;2023-07-13T02:13:15;13.47;;;7.60;;
3627;SDS011;1830;49.000;12.074;2023-07-13T02:15:42;11.20;;;8.30;;
3627;SDS011;1830;49.000;12.074;2023-07-13T02:18:09;14.73;;;7.57;;
3627;SDS011;1830;49.000;12.074;2023-07-13T02:20:35;10.90;;;7.83;;
3627;SDS011;1830;49.000;12.074;2023-07-13T02:23:02;9.10;;;7.63;;
3627;SDS011;1830;49.000;12.074;2023-07-13T02:25:29;11.50;;;8.27;;
3627;SDS011;1830;49.000;12.074;2023-07-13T02:27:55;18.80;;;7.60;;
3627;SDS011;1830;49.000;12.074;2023-07-13T02:30:24;11.37;;;7.27;;
3627;SDS011;1830;49.000;12.074;2023-07-13T02:32:51;12.53;;;9.87;;
3627;SDS011;1830;49.000;12.074;2023-07-13T02:35:17;9.43;;;7.27;;
3627;SDS011;1830;49.000;12.074;2023-07-13T02:37:44;15.83;;;7.07;;
3627;SDS011;1830;49.000;12.074;2023-07-13T02:40:11;14.03;;;6.90;;
3627;SDS011;1830;49.000;12.074;2023-07-13T02:42:38;16.77;;;7.20;;
3627;SDS011;1830;49.000;12.074;2023-07-13T02:45:05;14.10;;;6.60;;
3627;SDS011;1830;49.000;12.074;2023-07-13T02:47:35;12.03;;;7.43;;
3627;SDS011;1830;49.000;12.074;2023-07-13T02:50:02;8.13;;;6.60;;
3627;SDS011;1830;49.000;12.074;2023-07-13T02:52:29;11.10;;;6.70;;
3627;SDS011;1830;49.000;12.074;2023-07-13T02:54:56;11.83;;;7.17;;
3627;SDS011;1830;49.000;12.074;2023-07-13T02:57:22;12.20;;;7.20;;
3627;SDS011;1830;49.000;12.074;2023-07-13T02:59:49;10.00;;;6.37;;
3627;SDS011;1830;49.000;12.074;2023-07-13T03:02:16;20.13;;;7.70;;
3627;SDS011;1830;49.000;12.074;2023-07-13T03:04:45;11.50;;;6.57;;
3627;SDS011;1830;49.000;12.074;2023-07-13T03:07:11;11.13;;;6.90;;
3627;SDS011;1830;49.000;12.074;2023-07-13T03:09:39;10.80;;;7.10;;
3627;SDS011;1830;49.000;12.074;2023-07-13T03:12:06;12.30;;;7.23;;
3627;SDS011;1830;49.000;12.074;2023-07-13T03:14:33;14.53;;;7.10;;
3627;SDS011;1830;49.000;12.074;2023-07-13T03:17:00;12.43;;;7.10;;
3627;SDS011;1830;49.000;12.074;2023-07-13T03:19:27;7.50;;;6.47;;
3627;SDS011;1830;49.000;12.074;2023-07-13T03:21:55;13.40;;;6.80;;
3627;SDS011;1830;49.000;12.074;2023-07-13T03:24:22;10.13;;;7.47;;
3627;SDS011;1830;49.000;12.074;2023-07-13T03:26:50;9.00;;;6.80;;
3627;SDS011;1830;49.000;12.074;2023-07-13T03:29:17;14.13;;;8.30;;
3627;SDS011;1830;49.000;12.074;2023-07-13T03:31:44;8.47;;;7.50;;
3627;SDS011;1830;49.000;12.074;2023-07-13T03:34:11;14.70;;;7.80;;
3627;SDS011;1830;49.000;12.074;2023-07-13T03:36:38;22.30;;;8.33;;
3627;SDS011;1830;49.000;12.074;2023-07-13T03:39:06;13.00;;;8.20;;
3627;SDS011;1830;49.000;12.074;2023-07-13T03:41:33;10.90;;;7.43;;
3627;SDS011;1830;49.000;12.074;2023-07-13T03:44:00;13.40;;;7.97;;
3627;SDS011;1830;49.000;12.074;2023-07-13T03:46:27;12.53;;;7.03;;
3627;SDS011;1830;49.000;12.074;2023-07-13T03:48:54;20.50;;;7.40;;
3627;SDS011;1830;49.000;12.074;2023-07-13T03:51:21;18.43;;;8.00;;
3627;SDS011;1830;49.000;12.074;2023-07-13T03:53:48;22.67;;;7.93;;
3627;SDS011;1830;49.000;12.074;2023-07-13T03:56:17;13.93;;;8.13;;
3627;SDS011;1830;49.000;12.074;2023-07-13T03:58:45;15.10;;;8.83;;
3627;SDS011;1830;49.000;12.074;2023-07-13T04:01:14;17.23;;;9.33;;
3627;SDS011;1830;49.000;12.074;2023-07-13T04:03:42;12.17;;;8.40;;
3627;SDS011;1830;49.000;12.074;2023-07-13T04:06:12;16.93;;;8.60;;
3627;SDS011;1830;49.000;12.074;2023-07-13T04:08:46;23.83;;;8.30;;
3627;SDS011;1830;49.000;12.074;2023-07-13T04:11:16;19.93;;;8.30;;
3627;SDS011;1830;49.000;12.074;2023-07-13T04:13:44;15.83;;;8.83;;
3627;SDS011;1830;49.000;12.074;2023-07-13T04:16:11;21.07;;;8.73;;
3627;SDS011;1830;49.000;12.074;2023-07-13T04:18:38;24.70;;;9.80;;
3627;SDS011;1830;49.000;12.074;2023-07-13T04:21:06;12.93;;;9.00;;
3627;SDS011;1830;49.000;12.074;2023-07-13T04:23:33;24.00;;;10.13;;
3627;SDS011;1830;49.000;12.074;2023-07-13T04:26:00;26.07;;;11.77;;
3627;SDS011;1830;49.000;12.074;2023-07-13T04:28:28;29.00;;;11.10;;
3627;SDS011;1830;49.000;12.074;2023-07-13T04:30:55;24.80;;;11.27;;
3627;SDS011;1830;49.000;12.074;2023-07-13T04:33:22;18.93;;;9.43;;
3627;SDS011;1830;49.000;12.074;2023-07-13T04:35:50;16.53;;;9.97;;
3627;SDS011;1830;49.000;12.074;2023-07-13T04:38:21;20.53;;;9.43;;
3627;SDS011;1830;49.000;12.074;2023-07-13T04:40:49;25.77;;;8.83;;
3627;SDS011;1830;49.000;12.074;2023-07-13T04:43:17;24.70;;;9.03;;
3627;SDS011;1830;49.000;12.074;2023-07-13T04:45:45;17.23;;;8.83;;
3627;SDS011;1830;49.000;12.074;2023-07-13T04:48:12;16.23;;;7.90;;
3627;SDS011;1830;49.000;12.074;2023-07-13T04:50:38;28.67;;;8.97;;
3627;SDS011;1830;49.000;12.074;2023-07-13T04:53:05;13.43;;;7.00;;
3627;SDS011;1830;49.000;12.074;2023-07-13T04:55:32;15.47;;;7.43;;
3627;SDS011;1830;49.000;12.074;2023-07-13T04:57:59;21.30;;;7.17;;
3627;SDS011;1830;49.000;12.074;2023-07-13T05:00:27;16.67;;;7.77;;
3627;SDS011;1830;49.000;12.074;2023-07-13T05:02:56;13.00;;;6.87;;
3627;SDS011;1830;49.000;12.074;2023-07-13T05:05:24;11.60;;;6.10;;
3627;SDS011;1830;49.000;12.074;2023-07-13T05:07:52;17.80;;;7.10;;
3627;SDS011;1830;49.000;12.074;2023-07-13T05:10:19;23.13;;;9.93;;
3627;SDS011;1830;49.000;12.074;2023-07-13T05:12:46;22.43;;;7.60;;
3627;SDS011;1830;49.000;12.074;2023-07-13T05:15:12;12.80;;;5.63;;
3627;SDS011;1830;49.000;12.074;2023-07-13T05:17:39;17.10;;;5.30;;
3627;SDS011;1830;49.000;12.074;2023-07-13T05:20:08;12.53;;;5.73;;
3627;SDS011;1830;49.000;12.074;2023-07-13T05:22:35;17.17;;;5.17;;
3627;SDS011;1830;49.000;12.074;2023-07-13T05:25:04;11.87;;;4.73;;
3627;SDS011;1830;49.000;12.074;2023-07-13T05:27:32;8.00;;;4.30;;
3627;SDS011;1830;49.000;12.074;2023-07-13T05:29:58;9.53;;;4.83;;
3627;SDS011;1830;49.000;12.074;2023-07-13T05:32:25;10.90;;;4.73;;
3627;SDS011;1830;49.000;12.074;2023-07-13T05:34:52;10.57;;;4.40;;
3627;SDS011;1830;49.000;12.074;2023-07-13T05:37:20;13.03;;;4.80;;
3627;SDS011;1830;49.000;12.074;2023-07-13T05:39:47;5.57;;;4.10;;
3627;SDS011;1830;49.000;12.074;2023-07-13T05:42:14;14.70;;;4.53;;
3627;SDS011;1830;49.000;12.074;2023-07-13T05:44:41;9.60;;;4.80;;
3627;SDS011;1830;49.000;12.074;2023-07-13T05:47:08;9.20;;;4.00;;
3627;SDS011;1830;49.000;12.074;2023-07-13T05:49:34;6.83;;;4.73;;
3627;SDS011;1830;49.000;12.074;2023-07-13T05:52:01;5.53;;;3.53;;
3627;SDS011;1830;49.000;12.074;2023-07-13T05:54:29;4.40;;;3.40;;
3627;SDS011;1830;49.000;12.074;2023-07-13T05:56:56;13.00;;;4.00;;
3627;SDS011;1830;49.000;12.074;2023-07-13T05:59:23;10.27;;;3.50;;
3627;SDS011;1830;49.000;12.074;2023-07-13T06:01:50;7.50;;;4.20;;
3627;SDS011;1830;49.000;12.074;2023-07-13T06:04:18;11.87;;;3.60;;
3627;SDS011;1830;49.000;12.074;2023-07-13T06:06:45;7.90;;;3.40;;
3627;SDS011;1830;49.000;12.074;2023-07-13T06:09:11;10.33;;;3.40;;
3627;SDS011;1830;49.000;12.074;2023-07-13T06:11:39;10.50;;;3.37;;
3627;SDS011;1830;49.000;12.074;2023-07-13T06:14:06;7.67;;;3.67;;
3627;SDS011;1830;49.000;12.074;2023-07-13T06:16:33;4.60;;;3.07;;
3627;SDS011;1830;49.000;12.074;2023-07-13T06:19:00;5.67;;;3.63;;
3627;SDS011;1830;49.000;12.074;2023-07-13T06:21:27;5.17;;;3.27;;
3627;SDS011;1830;49.000;12.074;2023-07-13T06:23:54;9.03;;;3.40;;
3627;SDS011;1830;49.000;12.074;2023-07-13T06:26:21;4.07;;;3.10;;
3627;SDS011;1830;49.000;12.074;2023-07-13T06:28:49;4.43;;;3.07;;
3627;SDS011;1830;49.000;12.074;2023-07-13T06:31:16;7.40;;;3.30;;
3627;SDS011;1830;49.000;12.074;2023-07-13T06:33:43;7.73;;;2.70;;
3627;SDS011;1830;49.000;12.074;2023-07-13T06:36:10;41.57;;;3.40;;
3627;SDS011;1830;49.000;12.074;2023-07-13T06:38:37;8.00;;;2.57;;
3627;SDS011;1830;49.000;12.074;2023-07-13T06:41:04;14.93;;;3.57;;
3627;SDS011;1830;49.000;12.074;2023-07-13T06:43:32;3.63;;;3.00;;
3627;SDS011;1830;49.000;12.074;2023-07-13T06:46:00;12.23;;;3.07;;
3627;SDS011;1830;49.000;12.074;2023-07-13T06:48:27;5.83;;;3.50;;
3627;SDS011;1830;49.000;12.074;2023-07-13T06:50:54;6.63;;;3.00;;
3627;SDS011;1830;49.000;12.074;2023-07-13T06:53:21;3.37;;;2.87;;
3627;SDS011;1830;49.000;12.074;2023-07-13T06:55:48;9.80;;;3.10;;
3627;SDS011;1830;49.000;12.074;2023-07-13T06:58:16;6.60;;;3.50;;
3627;SDS011;1830;49.000;12.074;2023-07-13T07:00:43;3.83;;;2.60;;
3627;SDS011;1830;49.000;12.074;2023-07-13T07:03:11;7.30;;;2.97;;
3627;SDS011;1830;49.000;12.074;2023-07-13T07:05:38;8.20;;;3.70;;
3627;SDS011;1830;49.000;12.074;2023-07-13T07:08:05;12.83;;;2.70;;
3627;SDS011;1830;49.000;12.074;2023-07-13T07:10:32;18.67;;;3.53;;
3627;SDS011;1830;49.000;12.074;2023-07-13T07:12:59;11.73;;;3.13;;
3627;SDS011;1830;49.000;12.074;2023-07-13T07:15:26;8.77;;;3.23;;
3627;SDS011;1830;49.000;12.074;2023-07-13T07:17:53;4.87;;;2.97;;
3627;SDS011;1830;49.000;12.074;2023-07-13T07:20:21;5.93;;;2.80;;
3627;SDS011;1830;49.000;12.074;2023-07-13T07:22:48;7.90;;;3.47;;
3627;SDS011;1830;49.000;12.074;2023-07-13T07:25:15;4.50;;;2.30;;
3627;SDS011;1830;49.000;12.074;2023-07-13T07:27:41;4.93;;;3.27;;
3627;SDS011;1830;49.000;12.074;2023-07-13T07:30:08;7.93;;;2.83;;
3627;SDS011;1830;49.000;12.074;2023-07-13T07:32:36;4.57;;;3.10;;
3627;SDS011;1830;49.000;12.074;2023-07-13T07:35:03;2.93;;;2.73;;
3627;SDS011;1830;49.000;12.074;2023-07-13T07:37:31;6.23;;;2.70;;
3627;SDS011;1830;49.000;12.074;2023-07-13T07:39:58;4.67;;;2.20;;
3627;SDS011;1830;49.000;12.074;2023-07-13T07:42:25;2.73;;;2.00;;
3627;SDS011;1830;49.000;12.074;2023-07-13T07:44:51;3.63;;;2.63;;
3627;SDS011;1830;49.000;12.074;2023-07-13T07:47:18;3.20;;;2.30;;
3627;SDS011;1830;49.000;12.074;2023-07-13T07:49:45;4.60;;;2.27;;
3627;SDS011;1830;49.000;12.074;2023-07-13T07:52:12;4.43;;;2.37;;
3627;SDS011;1830;49.000;12.074;2023-07-13T07:54:40;4.37;;;2.50;;
3627;SDS011;1830;49.000;12.074;2023-07-13T07:57:06;2.83;;;2.20;;
3627;SDS011;1830;49.000;12.074;2023-07-13T07:59:34;5.03;;;2.33;;
3627;SDS011;1830;49.000;12.074;2023-07-13T08:02:03;5.13;;;2.87;;
3627;SDS011;1830;49.000;12.074;2023-07-13T08:04:30;4.37;;;2.30;;
3627;SDS011;1830;49.000;12.074;2023-07-13T08:06:57;3.60;;;2.23;;
3627;SDS011;1830;49.000;12.074;2023-07-13T08:09:23;12.90;;;3.40;;
3627;SDS011;1830;49.000;12.074;2023-07-13T08:11:52;2.47;;;2.20;;
3627;SDS011;1830;49.000;12.074;2023-07-13T08:14:19;3.93;;;2.53;;
3627;SDS011;1830;49.000;12.074;2023-07-13T08:16:46;4.47;;;2.47;;
3627;SDS011;1830;49.000;12.074;2023-07-13T08:19:13;9.00;;;4.30;;
3627;SDS011;1830;49.000;12.074;2023-07-13T08:21:40;6.23;;;2.40;;
3627;SDS011;1830;49.000;12.074;2023-07-13T08:24:08;5.93;;;2.13;;
3627;SDS011;1830;49.000;12.074;2023-07-13T08:26:35;7.70;;;2.50;;
3627;SDS011;1830;49.000;12.074;2023-07-13T08:29:03;4.50;;;2.53;;
3627;SDS011;1830;49.000;12.074;2023-07-13T08:31:30;5.10;;;2.67;;
3627;SDS011;1830;49.000;12.074;2023-07-13T08:33:57;5.93;;;2.50;;
3627;SDS011;1830;49.000;12.074;2023-07-13T08:36:24;10.20;;;2.60;;
3627;SDS011;1830;49.000;12.074;2023-07-13T08:38:52;4.70;;;2.40;;
3627;SDS011;1830;49.000;12.074;2023-07-13T08:41:18;3.73;;;2.27;;
3627;SDS011;1830;49.000;12.074;2023-07-13T08:43:47;11.73;;;3.23;;
3627;SDS011;1830;49.000;12.074;2023-07-13T08:46:19;3.17;;;2.53;;
3627;SDS011;1830;49.000;12.074;2023-07-13T08:48:52;4.20;;;2.73;;
3627;SDS011;1830;49.000;12.074;2023-07-13T08:51:26;11.00;;;2.80;;
3627;SDS011;1830;49.000;12.074;2023-07-13T08:54:02;6.30;;;2.40;;
3627;SDS011;1830;49.000;12.074;2023-07-13T08:56:31;11.10;;;2.40;;
3627;SDS011;1830;49.000;12.074;2023-07-13T08:58:59;10.23;;;2.67;;
3627;SDS011;1830;49.000;12.074;2023-07-13T09:01:33;5.53;;;2.10;;
3627;SDS011;1830;49.000;12.074;2023-07-13T09:04:11;11.80;;;2.60;;
3627;SDS011;1830;49.000;12.074;2023-07-13T09:06:45;5.30;;;2.50;;
3627;SDS011;1830;49.000;12.074;2023-07-13T09:09:28;2.67;;;2.00;;
3627;SDS011;1830;49.000;12.074;2023-07-13T09:12:14;7.20;;;2.70;;
3627;SDS011;1830;49.000;12.074;2023-07-13T09:14:50;3.00;;;2.37;;
3627;SDS011;1830;49.000;12.074;2023-07-13T09:17:20;6.73;;;2.60;;
3627;SDS011;1830;49.000;12.074;2023-07-13T09:19:53;3.10;;;2.63;;
3627;SDS011;1830;49.000;12.074;2023-07-13T09:22:25;5.40;;;2.30;;
3627;SDS011;1830;49.000;12.074;2023-07-13T09:24:57;5.40;;;3.00;;
3627;SDS011;1830;49.000;12.074;2023-07-13T09:27:29;5.93;;;2.40;;
3627;SDS011;1830;49.000;12.074;2023-07-13T09:30:10;7.33;;;2.97;;
3627;SDS011;1830;49.000;12.074;2023-07-13T09:32:52;5.60;;;3.20;;
3627;SDS011;1830;49.000;12.074;2023-07-13T09:35:21;5.03;;;2.50;;
3627;SDS011;1830;49.000;12.074;2023-07-13T09:37:56;5.63;;;2.80;;
3627;SDS011;1830;49.000;12.074;2023-07-13T09:40:34;3.00;;;2.80;;
3627;SDS011;1830;49.000;12.074;2023-07-13T09:43:07;4.20;;;2.50;;
3627;SDS011;1830;49.000;12.074;2023-07-13T09:45:37;7.20;;;2.67;;
3627;SDS011;1830;49.000;12.074;2023-07-13T09:48:06;2.37;;;2.17;;
3627;SDS011;1830;49.000;12.074;2023-07-13T09:50:38;6.93;;;2.13;;
3627;SDS011;1830;49.000;12.074;2023-07-13T09:53:11;4.67;;;2.30;;
3627;SDS011;1830;49.000;12.074;2023-07-13T09:55:38;10.10;;;2.13;;
3627;SDS011;1830;49.000;12.074;2023-07-13T09:58:09;5.70;;;2.10;;
3627;SDS011;1830;49.000;12.074;2023-07-13T10:00:37;5.63;;;1.87;;
3627;SDS011;1830;49.000;12.074;2023-07-13T10:03:16;4.93;;;1.83;;
3627;SDS011;1830;49.000;12.074;2023-07-13T10:05:45;3.87;;;2.03;;
3627;SDS011;1830;49.000;12.074;2023-07-13T10:08:16;18.17;;;2.57;;
3627;SDS011;1830;49.000;12.074;2023-07-13T10:10:44;2.10;;;1.90;;
3627;SDS011;1830;49.000;12.074;2023-07-13T10:13:24;4.83;;;1.80;;
3627;SDS011;1830;49.000;12.074;2023-07-13T10:15:54;5.20;;;1.97;;
3627;SDS011;1830;49.000;12.074;2023-07-13T10:18:23;3.37;;;1.70;;
3627;SDS011;1830;49.000;12.074;2023-07-13T10:20:50;5.67;;;2.47;;
3627;SDS011;1830;49.000;12.074;2023-07-13T10:23:21;8.03;;;3.97;;
3627;SDS011;1830;49.000;12.074;2023-07-13T10:25:53;12.57;;;2.00;;
3627;SDS011;1830;49.000;12.074;2023-07-13T10:28:24;5.87;;;2.00;;
3627;SDS011;1830;49.000;12.074;2023-07-13T10:30:55;2.60;;;2.00;;
3627;SDS011;1830;49.000;12.074;2023-07-13T10:33:25;4.90;;;2.10;;
3627;SDS011;1830;49.000;12.074;2023-07-13T10:35:54;4.57;;;2.20;;
3627;SDS011;1830;49.000;12.074;2023-07-13T10:38:37;3.33;;;2.07;;
3627;SDS011;1830;49.000;12.074;2023-07-13T10:41:05;5.13;;;2.10;;
3627;SDS011;1830;49.000;12.074;2023-07-13T10:43:39;12.63;;;2.97;;
3627;SDS011;1830;49.000;12.074;2023-07-13T10:46:10;4.43;;;2.00;;
3627;SDS011;1830;49.000;12.074;2023-07-13T10:48:41;4.50;;;2.13;;
3627;SDS011;1830;49.000;12.074;2023-07-13T10:51:13;6.53;;;1.90;;
3627;SDS011;1830;49.000;12.074;2023-07-13T10:53:46;4.40;;;2.33;;
3627;SDS011;1830;49.000;12.074;2023-07-13T10:56:19;7.30;;;2.50;;
3627;SDS011;1830;49.000;12.074;2023-07-13T10:59:01;6.90;;;2.07;;
3627;SDS011;1830;49.000;12.074;2023-07-13T11:01:39;21.50;;;3.60;;
3627;SDS011;1830;49.000;12.074;2023-07-13T11:04:21;19.73;;;3.65;;
3627;SDS011;1830;49.000;12.074;2023-07-13T11:06:50;13.03;;;3.70;;
3627;SDS011;1830;49.000;12.074;2023-07-13T11:09:30;10.67;;;3.00;;
3627;SDS011;1830;49.000;12.074;2023-07-13T11:12:06;6.60;;;2.47;;
3627;SDS011;1830;49.000;12.074;2023-07-13T11:14:41;5.10;;;2.40;;
3627;SDS011;1830;49.000;12.074;2023-07-13T11:20:18;9.83;;;2.20;;
3627;SDS011;1830;49.000;12.074;2023-07-13T11:22:50;2.20;;;1.83;;
3627;SDS011;1830;49.000;12.074;2023-07-13T11:25:25;7.03;;;1.80;;
3627;SDS011;1830;49.000;12.074;2023-07-13T11:28:06;3.80;;;1.80;;
3627;SDS011;1830;49.000;12.074;2023-07-13T11:30:42;17.33;;;1.60;;
3627;SDS011;1830;49.000;12.074;2023-07-13T11:33:14;3.57;;;1.90;;
3627;SDS011;1830;49.000;12.074;2023-07-13T11:35:45;6.23;;;2.13;;
3627;SDS011;1830;49.000;12.074;2023-07-13T11:38:28;3.08;;;1.85;;
3627;SDS011;1830;49.000;12.074;2023-07-13T11:41:00;2.88;;;1.80;;
3627;SDS011;1830;49.000;12.074;2023-07-13T11:43:29;3.72;;;1.73;;
3627;SDS011;1830;49.000;12.074;2023-07-13T11:45:58;3.53;;;2.08;;
3627;SDS011;1830;49.000;12.074;2023-07-13T11:48:37;5.88;;;1.90;;
3627;SDS011;1830;49.000;12.074;2023-07-13T11:51:06;4.22;;;1.90;;
3627;SDS011;1830;49.000;12.074;2023-07-13T11:53:45;4.28;;;1.92;;
3627;SDS011;1830;49.000;12.074;2023-07-13T11:56:14;5.32;;;1.80;;
3627;SDS011;1830;49.000;12.074;2023-07-13T11:58:41;6.60;;;2.75;;
3627;SDS011;1830;49.000;12.074;2023-07-13T12:01:10;3.42;;;1.90;;
3627;SDS011;1830;49.000;12.074;2023-07-13T12:03:46;8.90;;;2.60;;
3627;SDS011;1830;49.000;12.074;2023-07-13T12:06:27;3.28;;;1.90;;
3627;SDS011;1830;49.000;12.074;2023-07-13T12:08:58;6.25;;;1.83;;
3627;SDS011;1830;49.000;12.074;2023-07-13T12:11:26;5.47;;;1.92;;
3627;SDS011;1830;49.000;12.074;2023-07-13T12:13:53;8.38;;;1.70;;
3627;SDS011;1830;49.000;12.074;2023-07-13T12:16:23;12.25;;;1.70;;
3627;SDS011;1830;49.000;12.074;2023-07-13T12:18:53;3.53;;;2.33;;
3627;SDS011;1830;49.000;12.074;2023-07-13T12:21:22;8.50;;;2.03;;
3627;SDS011;1830;49.000;12.074;2023-07-13T12:23:56;3.75;;;1.88;;
3627;SDS011;1830;49.000;12.074;2023-07-13T12:26:23;6.55;;;2.25;;
3627;SDS011;1830;49.000;12.074;2023-07-13T12:28:51;5.55;;;1.90;;
3627;SDS011;1830;49.000;12.074;2023-07-13T12:31:25;5.70;;;1.65;;
3627;SDS011;1830;49.000;12.074;2023-07-13T12:33:57;2.78;;;1.80;;
3627;SDS011;1830;49.000;12.074;2023-07-13T12:36:26;2.15;;;1.60;;
3627;SDS011;1830;49.000;12.074;2023-07-13T12:38:56;5.60;;;1.77;;
3627;SDS011;1830;49.000;12.074;2023-07-13T12:41:28;3.53;;;1.98;;
3627;SDS011;1830;49.000;12.074;2023-07-13T12:43:55;1.98;;;1.77;;
3627;SDS011;1830;49.000;12.074;2023-07-13T12:46:23;2.17;;;1.70;;
3627;SDS011;1830;49.000;12.074;2023-07-13T12:48:53;5.53;;;2.20;;
3627;SDS011;1830;49.000;12.074;2023-07-13T12:51:24;7.97;;;2.17;;
3627;SDS011;1830;49.000;12.074;2023-07-13T12:53:56;2.53;;;1.67;;
3627;SDS011;1830;49.000;12.074;2023-07-13T12:56:26;12.02;;;9.20;;
3627;SDS011;1830;49.000;12.074;2023-07-13T12:58:57;17.83;;;1.90;;
3627;SDS011;1830;49.000;12.074;2023-07-13T13:01:28;2.67;;;1.83;;
3627;SDS011;1830;49.000;12.074;2023-07-13T13:03:56;1.83;;;1.70;;
3627;SDS011;1830;49.000;12.074;2023-07-13T13:06:24;7.13;;;1.98;;
3627;SDS011;1830;49.000;12.074;2023-07-13T13:08:53;11.25;;;1.48;;
3627;SDS011;1830;49.000;12.074;2023-07-13T13:11:24;7.22;;;2.55;;
3627;SDS011;1830;49.000;12.074;2023-07-13T13:13:52;2.53;;;1.60;;
3627;SDS011;1830;49.000;12.074;2023-07-13T13:16:21;4.75;;;1.90;;
3627;SDS011;1830;49.000;12.074;2023-07-13T13:18:50;4.88;;;1.70;;
3627;SDS011;1830;49.000;12.074;2023-07-13T13:21:17;1.73;;;1.42;;
3627;SDS011;1830;49.000;12.074;2023-07-13T13:23:45;5.30;;;2.13;;
3627;SDS011;1830;49.000;12.074;2023-07-13T13:26:14;3.70;;;1.38;;
3627;SDS011;1830;49.000;12.074;2023-07-13T13:28:41;2.45;;;1.75;;
3627;SDS011;1830;49.000;12.074;2023-07-13T13:31:09;2.50;;;1.75;;
3627;SDS011;1830;49.000;12.074;2023-07-13T13:33:37;2.88;;;2.00;;
3627;SDS011;1830;49.000;12.074;2023-07-13T13:36:08;12.35;;;2.05;;
3627;SDS011;1830;49.000;12.074;2023-07-13T13:38:40;2.45;;;1.92;;
3627;SDS011;1830;49.000;12.074;2023-07-13T13:41:09;4.25;;;1.35;;
3627;SDS011;1830;49.000;12.074;2023-07-13T13:43:39;5.65;;;2.00;;
3627;SDS011;1830;49.000;12.074;2023-07-13T13:46:12;8.35;;;2.28;;
3627;SDS011;1830;49.000;12.074;2023-07-13T13:48:41;1.75;;;1.48;;
3627;SDS011;1830;49.000;12.074;2023-07-13T13:51:13;12.10;;;1.83;;
3627;SDS011;1830;49.000;12.074;2023-07-13T13:53:42;1.95;;;1.52;;
3627;SDS011;1830;49.000;12.074;2023-07-13T13:56:09;4.63;;;1.70;;
3627;SDS011;1830;49.000;12.074;2023-07-13T13:58:36;3.80;;;1.60;;
3627;SDS011;1830;49.000;12.074;2023-07-13T14:01:04;4.32;;;1.70;;
3627;SDS011;1830;49.000;12.074;2023-07-13T14:03:33;3.17;;;1.83;;
3627;SDS011;1830;49.000;12.074;2023-07-13T14:06:00;3.08;;;1.90;;
3627;SDS011;1830;49.000;12.074;2023-07-13T14:08:27;3.25;;;1.40;;
3627;SDS011;1830;49.000;12.074;2023-07-13T14:10:54;2.83;;;1.60;;
3627;SDS011;1830;49.000;12.074;2023-07-13T14:13:25;6.05;;;1.70;;
3627;SDS011;1830;49.000;12.074;2023-07-13T14:15:54;3.53;;;1.63;;
3627;SDS011;1830;49.000;12.074;2023-07-13T14:18:22;2.28;;;1.60;;
3627;SDS011;1830;49.000;12.074;2023-07-13T14:20:49;4.32;;;1.90;;
3627;SDS011;1830;49.000;12.074;2023-07-13T14:23:17;3.70;;;2.15;;
3627;SDS011;1830;49.000;12.074;2023-07-13T14:25:44;4.07;;;1.58;;
3627;SDS011;1830;49.000;12.074;2023-07-13T14:28:17;4.07;;;1.98;;
3627;SDS011;1830;49.000;12.074;2023-07-13T14:30:47;2.95;;;1.83;;
3627;SDS011;1830;49.000;12.074;2023-07-13T14:33:14;9.55;;;1.75;;
3627;SDS011;1830;49.000;12.074;2023-07-13T14:35:42;4.43;;;1.50;;
3627;SDS011;1830;49.000;12.074;2023-07-13T14:38:10;2.08;;;1.50;;
3627;SDS011;1830;49.000;12.074;2023-07-13T14:40:39;3.30;;;1.65;;
3627;SDS011;1830;49.000;12.074;2023-07-13T14:43:08;2.60;;;1.83;;
3627;SDS011;1830;49.000;12.074;2023-07-13T14:45:40;5.45;;;1.73;;
3627;SDS011;1830;49.000;12.074;2023-07-13T14:48:15;3.15;;;1.77;;
3627;SDS011;1830;49.000;12.074;2023-07-13T14:50:46;3.97;;;1.83;;
3627;SDS011;1830;49.000;12.074;2023-07-13T14:53:13;5.72;;;1.63;;
3627;SDS011;1830;49.000;12.074;2023-07-13T14:55:40;2.40;;;1.67;;
3627;SDS011;1830;49.000;12.074;2023-07-13T14:58:07;5.18;;;1.83;;
3627;SDS011;1830;49.000;12.074;2023-07-13T15:00:35;4.75;;;1.70;;
3627;SDS011;1830;49.000;12.074;2023-07-13T15:03:02;3.30;;;1.75;;
3627;SDS011;1830;49.000;12.074;2023-07-13T15:05:31;4.65;;;3.42;;
3627;SDS011;1830;49.000;12.074;2023-07-13T15:08:00;5.57;;;1.90;;